Time;durP1;ratioP1;P1;durP2;ratioP2;P2;SDS_P1;SDS_P2;PMS_P1;PMS_P2;Temp;Humidity;BMP_temperature;BMP_pressure;BME280_temperature;BME280_humidity;BME280_pressure;Samples;Min_cycle;Max_cycle;Signal;HPM_P1;HPM_P2
2021/11/21 00:00:07;;;;;;;4.15;1.20;;;22.10;44.30;;;;;;4933286;29;20203;-56
2021/11/21 00:02:38;;;;;;;1.48;0.82;;;22.10;44.40;;;;;;4932991;29;20195;-56
2021/11/21 00:05:10;;;;;;;1.73;0.90;;;22.10;44.40;;;;;;4930986;29;20766;-56
2021/11/21 00:07:43;;;;;;;2.97;1.00;;;22.10;44.40;;;;;;4931846;29;20294;-53
2021/11/21 00:10:15;;;;;;;4.28;1.30;;;22.10;44.30;;;;;;4930084;29;20614;-56
2021/11/21 00:12:46;;;;;;;2.25;0.95;;;22.10;44.10;;;;;;4930269;29;20200;-49
2021/11/21 00:15:17;;;;;;;2.08;1.10;;;22.10;44.00;;;;;;4921125;29;20256;-50
2021/11/21 00:17:48;;;;;;;3.92;1.25;;;22.10;43.90;;;;;;4934049;29;20200;-49
2021/11/21 00:20:19;;;;;;;3.65;1.20;;;22.20;43.90;;;;;;4931562;29;20707;-50
2021/11/21 00:22:52;;;;;;;3.47;1.20;;;22.20;43.80;;;;;;4933349;29;20211;-49
2021/11/21 00:25:23;;;;;;;3.38;1.27;;;22.20;43.70;;;;;;4933485;29;20286;-47
2021/11/21 00:27:54;;;;;;;5.55;1.48;;;22.20;43.70;;;;;;4933217;29;20219;-53
2021/11/21 00:30:25;;;;;;;6.15;1.15;;;22.30;43.70;;;;;;4931431;29;20196;-47
2021/11/21 00:32:56;;;;;;;3.40;1.20;;;22.30;43.70;;;;;;4934818;29;20207;-49
2021/11/21 00:35:27;;;;;;;5.60;1.52;;;22.30;43.60;;;;;;4932669;29;20219;-55
2021/11/21 00:38:00;;;;;;;4.85;1.23;;;22.30;43.60;;;;;;4933013;29;20196;-49
2021/11/21 00:40:31;;;;;;;4.60;1.52;;;22.40;43.60;;;;;;4923327;29;20295;-47
2021/11/21 00:43:02;;;;;;;8.27;1.55;;;22.40;43.50;;;;;;4927792;29;20212;-53
2021/11/21 00:45:34;;;;;;;3.95;1.30;;;22.40;43.50;;;;;;4930604;29;20252;-47
2021/11/21 00:48:05;;;;;;;3.38;1.20;;;22.40;43.40;;;;;;4933709;29;20219;-50
2021/11/21 00:50:36;;;;;;;2.88;1.25;;;22.40;43.40;;;;;;4917775;29;20586;-46
2021/11/21 00:53:10;;;;;;;4.57;1.35;;;22.40;43.30;;;;;;4934278;29;20203;-52
2021/11/21 00:55:44;;;;;;;6.68;1.50;;;22.40;43.30;;;;;;4932776;29;20283;-46
2021/11/21 00:58:16;;;;;;;4.03;1.20;;;22.40;43.90;;;;;;4932538;29;20242;-50
2021/11/21 01:00:48;;;;;;;3.50;1.13;;;22.50;43.30;;;;;;4927236;29;20259;-48
2021/11/21 01:03:22;;;;;;;3.75;1.40;;;22.50;43.30;;;;;;4924505;29;20274;-48
2021/11/21 01:05:54;;;;;;;2.55;1.30;;;22.50;43.30;;;;;;4931364;29;20250;-48
2021/11/21 01:08:28;;;;;;;4.15;1.17;;;22.50;43.20;;;;;;4917841;29;20358;-48
2021/11/21 01:11:02;;;;;;;1.80;1.15;;;22.50;43.20;;;;;;4932125;29;20207;-57
2021/11/21 01:13:34;;;;;;;3.03;1.20;;;22.60;43.30;;;;;;4931536;29;20203;-50
2021/11/21 01:16:05;;;;;;;1.83;1.27;;;22.60;43.20;;;;;;4925945;29;20219;-48
2021/11/21 01:18:36;;;;;;;3.17;1.45;;;22.60;43.20;;;;;;4932388;29;20204;-47
2021/11/21 01:21:07;;;;;;;5.53;1.30;;;22.60;43.20;;;;;;4930184;29;20669;-53
2021/11/21 01:23:40;;;;;;;2.45;1.17;;;22.60;43.10;;;;;;4920022;29;20545;-47
2021/11/21 01:26:11;;;;;;;5.78;1.23;;;22.70;43.10;;;;;;4933790;29;20615;-55
2021/11/21 01:28:42;;;;;;;3.30;0.90;;;22.70;43.10;;;;;;4931487;29;20223;-53
2021/11/21 01:31:13;;;;;;;2.90;0.90;;;22.70;43.10;;;;;;4924810;29;20747;-47
2021/11/21 01:33:44;;;;;;;2.03;0.90;;;22.80;43.10;;;;;;4923584;29;20606;-56
2021/11/21 01:36:15;;;;;;;1.77;1.10;;;22.80;43.10;;;;;;4926043;29;20230;-56
2021/11/21 01:38:48;;;;;;;1.45;0.82;;;22.80;43.00;;;;;;4929513;29;20247;-57
2021/11/21 01:41:19;;;;;;;3.65;1.13;;;22.80;43.60;;;;;;4929502;29;20204;-50
2021/11/21 01:43:50;;;;;;;4.53;0.80;;;22.80;43.00;;;;;;4930937;29;20246;-54
2021/11/21 01:46:32;;;;;;;2.28;0.80;;;22.80;42.90;;;;;;4922203;29;20203;-55
2021/11/21 01:49:03;;;;;;;3.08;1.10;;;22.80;42.90;;;;;;4928173;29;20243;-55
2021/11/21 01:51:34;;;;;;;1.48;0.80;;;22.80;42.90;;;;;;4924571;29;20211;-58
2021/11/21 01:54:09;;;;;;;1.90;1.00;;;22.90;43.00;;;;;;4923828;29;20229;-54
2021/11/21 01:56:41;;;;;;;1.65;0.73;;;22.90;43.00;;;;;;4926216;29;20203;-52
2021/11/21 01:59:12;;;;;;;2.00;0.90;;;22.90;42.90;;;;;;4928973;29;20223;-53
2021/11/21 02:01:43;;;;;;;1.38;0.73;;;22.90;42.90;;;;;;4928553;29;20218;-57
2021/11/21 02:04:14;;;;;;;2.33;0.98;;;23.00;43.00;;;;;;4929293;29;20255;-57
2021/11/21 02:06:45;;;;;;;2.40;0.93;;;23.00;43.00;;;;;;4929471;29;20207;-57
2021/11/21 02:09:18;;;;;;;2.70;0.90;;;23.00;43.00;;;;;;4929164;29;20227;-57
2021/11/21 02:11:49;;;;;;;1.13;0.80;;;23.00;42.90;;;;;;4929139;29;20207;-51
2021/11/21 02:14:20;;;;;;;1.85;0.90;;;23.00;42.90;;;;;;4930000;29;20766;-55
2021/11/21 02:16:51;;;;;;;1.45;0.70;;;23.00;42.90;;;;;;4928280;29;20216;-54
2021/11/21 02:19:22;;;;;;;1.27;0.90;;;23.00;42.80;;;;;;4928323;29;20199;-53
2021/11/21 02:21:55;;;;;;;3.35;1.00;;;23.10;42.90;;;;;;4929184;29;20207;-47
2021/11/21 02:24:26;;;;;;;1.92;1.00;;;23.10;42.90;;;;;;4927562;29;20286;-47
2021/11/21 02:26:58;;;;;;;3.85;0.98;;;23.10;42.90;;;;;;4921757;29;20211;-49
2021/11/21 02:29:29;;;;;;;2.70;0.90;;;23.10;43.10;;;;;;4929373;29;20234;-54
2021/11/21 02:32:00;;;;;;;2.65;1.10;;;23.10;43.00;;;;;;4929531;29;20196;-54
2021/11/21 02:34:31;;;;;;;2.58;1.00;;;23.20;43.10;;;;;;4929934;29;20282;-56
2021/11/21 02:37:08;;;;;;;1.70;0.80;;;23.20;43.20;;;;;;4929212;29;20207;-51
2021/11/21 02:39:40;;;;;;;1.27;0.80;;;23.20;43.20;;;;;;4928295;29;20225;-56
2021/11/21 02:42:25;;;;;;;3.35;1.17;;;23.20;43.20;;;;;;4928464;29;20263;-56
2021/11/21 02:44:57;;;;;;;2.97;1.10;;;23.20;43.20;;;;;;4926941;29;20287;-55
2021/11/21 02:47:32;;;;;;;1.77;0.90;;;23.30;43.20;;;;;;4929646;29;20380;-50
2021/11/21 02:50:04;;;;;;;1.88;0.90;;;23.30;43.20;;;;;;4923199;29;20258;-48
2021/11/21 02:52:38;;;;;;;3.58;1.27;;;23.30;43.20;;;;;;4929549;29;20191;-51
2021/11/21 02:55:09;;;;;;;2.30;0.98;;;23.30;43.20;;;;;;4928164;29;20275;-45
2021/11/21 02:57:40;;;;;;;2.33;0.95;;;23.30;43.10;;;;;;4929076;29;20712;-52
2021/11/21 03:00:14;;;;;;;1.10;0.80;;;23.30;43.10;;;;;;4928734;29;20259;-50
2021/11/21 03:02:46;;;;;;;2.50;1.13;;;23.30;43.10;;;;;;4928155;29;20207;-56
2021/11/21 03:05:18;;;;;;;3.05;1.20;;;23.40;43.10;;;;;;4929692;29;20227;-52
2021/11/21 03:07:51;;;;;;;1.95;0.90;;;23.40;43.10;;;;;;4929817;29;20250;-52
2021/11/21 03:10:23;;;;;;;1.35;0.90;;;23.40;43.10;;;;;;4929490;29;20643;-53
2021/11/21 03:12:55;;;;;;;2.35;1.00;;;23.40;43.10;;;;;;4928832;29;20204;-50
2021/11/21 03:15:27;;;;;;;2.22;0.90;;;23.40;43.20;;;;;;4928608;29;20274;-53
2021/11/21 03:17:58;;;;;;;2.90;0.90;;;23.40;43.20;;;;;;4927972;29;20239;-55
2021/11/21 03:20:30;;;;;;;1.77;1.00;;;23.40;43.20;;;;;;4927451;29;20199;-51
2021/11/21 03:23:03;;;;;;;2.47;1.10;;;23.40;43.20;;;;;;4929132;29;20972;-51
2021/11/21 03:25:34;;;;;;;1.83;1.00;;;23.40;43.20;;;;;;4929387;29;20270;-54
2021/11/21 03:28:05;;;;;;;1.67;0.88;;;23.50;43.20;;;;;;4929423;29;20196;-55
2021/11/21 03:30:35;;;;;;;2.58;1.17;;;23.50;43.20;;;;;;4928116;29;20231;-50
2021/11/21 03:33:06;;;;;;;1.85;1.00;;;23.50;43.20;;;;;;4931727;29;20199;-52
2021/11/21 03:35:37;;;;;;;2.25;0.90;;;23.50;43.10;;;;;;4931763;29;20302;-49
2021/11/21 03:38:09;;;;;;;2.00;0.80;;;23.50;43.00;;;;;;4933243;29;20608;-53
2021/11/21 03:40:40;;;;;;;2.05;0.80;;;23.50;43.00;;;;;;4931808;29;20695;-50
2021/11/21 03:43:11;;;;;;;2.25;1.00;;;23.60;43.00;;;;;;4933489;29;20204;-53
2021/11/21 03:45:41;;;;;;;1.95;0.98;;;23.60;42.90;;;;;;4927422;29;20279;-49
2021/11/21 03:48:12;;;;;;;3.35;1.35;;;23.60;42.80;;;;;;4932988;29;20204;-50
2021/11/21 03:50:42;;;;;;;3.03;1.10;;;23.70;42.80;;;;;;4933423;29;20223;-47
2021/11/21 03:53:15;;;;;;;3.83;1.20;;;23.70;42.70;;;;;;4932605;29;20286;-54
2021/11/21 03:55:45;;;;;;;1.98;0.80;;;23.70;42.70;;;;;;4932900;29;20219;-55
2021/11/21 03:58:16;;;;;;;3.13;1.05;;;23.70;42.60;;;;;;4933455;29;20230;-50
2021/11/21 04:00:47;;;;;;;1.58;0.90;;;23.70;42.50;;;;;;4933621;29;20640;-51
2021/11/21 04:03:20;;;;;;;2.85;1.10;;;23.80;42.60;;;;;;4931724;29;20207;-51
2021/11/21 04:05:50;;;;;;;2.10;1.10;;;23.80;42.60;;;;;;4932410;29;20223;-53
2021/11/21 04:08:23;;;;;;;1.85;0.90;;;23.80;42.60;;;;;;4932737;29;20251;-50
2021/11/21 04:10:54;;;;;;;1.42;0.90;;;23.80;42.70;;;;;;4930653;29;20218;-56
2021/11/21 04:13:24;;;;;;;2.85;1.00;;;23.80;42.60;;;;;;4932261;29;20288;-51
2021/11/21 04:15:55;;;;;;;2.88;1.10;;;23.90;42.70;;;;;;4927640;29;20219;-54
2021/11/21 04:18:26;;;;;;;3.45;1.00;;;23.90;42.80;;;;;;4932796;29;20671;-55
2021/11/21 04:20:57;;;;;;;2.17;0.93;;;24.00;42.90;;;;;;4931627;29;20859;-54
2021/11/21 04:23:31;;;;;;;2.45;1.05;;;24.00;42.90;;;;;;4931898;29;20255;-56
2021/11/21 04:26:02;;;;;;;3.85;1.08;;;24.00;42.80;;;;;;4930953;29;20225;-57
2021/11/21 04:28:32;;;;;;;2.63;1.10;;;24.00;42.80;;;;;;4932809;29;20240;-58
2021/11/21 04:31:03;;;;;;;3.13;1.00;;;24.10;42.80;;;;;;4931800;29;20203;-49
2021/11/21 04:33:34;;;;;;;3.00;1.00;;;24.20;42.90;;;;;;4932520;29;20195;-53
2021/11/21 04:36:04;;;;;;;2.25;0.93;;;24.20;42.80;;;;;;4932376;29;20267;-51
2021/11/21 04:38:38;;;;;;;3.20;0.98;;;24.20;42.80;;;;;;4931428;29;20718;-52
2021/11/21 04:41:08;;;;;;;2.50;1.23;;;24.20;42.80;;;;;;4931827;29;20203;-56
2021/11/21 04:43:39;;;;;;;2.55;0.90;;;24.30;42.70;;;;;;4930857;29;20203;-52
2021/11/21 04:46:10;;;;;;;2.10;1.00;;;24.30;42.70;;;;;;4931864;29;20235;-53
2021/11/21 04:48:40;;;;;;;1.83;1.20;;;24.30;42.60;;;;;;4927533;29;20247;-55
2021/11/21 04:51:11;;;;;;;3.00;0.90;;;24.40;42.70;;;;;;4932116;29;20208;-49
2021/11/21 04:53:44;;;;;;;2.83;1.10;;;24.40;42.70;;;;;;4931326;29;20211;-57
2021/11/21 04:56:15;;;;;;;2.92;0.75;;;24.40;42.60;;;;;;4930342;29;20880;-53
2021/11/21 04:58:45;;;;;;;1.92;1.00;;;24.50;42.70;;;;;;4931576;29;20263;-57
2021/11/21 05:01:16;;;;;;;1.95;0.95;;;24.50;42.60;;;;;;4931423;29;20303;-49
2021/11/21 05:03:46;;;;;;;1.70;0.80;;;24.50;42.60;;;;;;4931856;29;20664;-50
2021/11/21 05:06:17;;;;;;;2.08;1.13;;;24.60;42.60;;;;;;4931598;29;20223;-54
2021/11/21 05:08:50;;;;;;;1.80;1.00;;;24.60;42.70;;;;;;4930434;29;20263;-53
2021/11/21 05:11:20;;;;;;;1.40;0.80;;;24.70;42.70;;;;;;4931560;29;20207;-51
2021/11/21 05:13:51;;;;;;;2.58;0.85;;;24.70;42.70;;;;;;4931519;29;20195;-50
2021/11/21 05:16:21;;;;;;;2.17;0.98;;;24.70;42.60;;;;;;4930575;29;20329;-51
2021/11/21 05:18:52;;;;;;;6.63;1.10;;;24.80;42.60;;;;;;4926010;29;20268;-53
2021/11/21 05:21:22;;;;;;;2.45;0.80;;;24.80;42.60;;;;;;4930671;29;20287;-50
2021/11/21 05:23:55;;;;;;;4.72;1.00;;;24.80;42.70;;;;;;4930747;29;20263;-48
2021/11/21 05:26:26;;;;;;;5.25;1.08;;;24.80;42.70;;;;;;4932362;29;20270;-54
2021/11/21 05:28:57;;;;;;;4.43;0.90;;;24.80;42.70;;;;;;4931132;29;20203;-49
2021/11/21 05:31:28;;;;;;;6.43;0.90;;;24.90;42.80;;;;;;4930931;29;20591;-51
2021/11/21 05:33:59;;;;;;;7.60;1.00;;;24.90;42.80;;;;;;4930062;29;20200;-49
2021/11/21 05:36:29;;;;;;;4.22;0.85;;;24.90;42.80;;;;;;4930976;29;20267;-51
2021/11/21 05:39:02;;;;;;;3.38;0.75;;;24.90;42.70;;;;;;4932190;29;20251;-55
2021/11/21 05:41:32;;;;;;;4.72;0.90;;;24.90;42.70;;;;;;4931803;29;20204;-50
2021/11/21 05:44:03;;;;;;;5.63;0.77;;;24.90;42.60;;;;;;4930562;29;20266;-51
2021/11/21 05:46:33;;;;;;;6.28;1.00;;;24.90;42.60;;;;;;4930930;29;20275;-51
2021/11/21 05:49:04;;;;;;;3.47;0.70;;;25.00;42.60;;;;;;4924996;29;20948;-51
2021/11/21 05:51:35;;;;;;;2.90;0.88;;;25.00;42.50;;;;;;4930800;29;20208;-52
2021/11/21 05:54:08;;;;;;;6.32;0.80;;;25.00;42.50;;;;;;4929970;29;20672;-53
2021/11/21 05:56:38;;;;;;;5.10;0.90;;;25.00;42.30;;;;;;4931098;29;20285;-49
2021/11/21 05:59:09;;;;;;;2.17;0.73;;;25.00;42.20;;;;;;4929484;29;20199;-48
2021/11/21 06:01:40;;;;;;;3.67;0.80;;;25.10;42.30;;;;;;4929653;29;20204;-51
2021/11/21 06:04:10;;;;;;;5.82;0.68;;;25.10;42.10;;;;;;4929567;29;20207;-55
2021/11/21 06:06:41;;;;;;;2.75;0.70;;;25.10;42.10;;;;;;4929713;29;20208;-56
2021/11/21 06:09:13;;;;;;;3.00;1.00;;;25.10;42.00;;;;;;4930945;29;20203;-53
2021/11/21 06:11:44;;;;;;;1.48;0.70;;;25.10;41.90;;;;;;4931225;29;20215;-54
2021/11/21 06:14:14;;;;;;;3.92;0.90;;;25.10;41.80;;;;;;4931306;29;20275;-55
2021/11/21 06:16:45;;;;;;;3.25;0.63;;;25.20;41.90;;;;;;4930069;29;20270;-49
2021/11/21 06:19:15;;;;;;;2.28;0.60;;;25.20;41.80;;;;;;4929541;29;20680;-54
2021/11/21 06:21:46;;;;;;;1.75;0.55;;;25.20;41.70;;;;;;4924943;29;20255;-55
2021/11/21 06:24:20;;;;;;;3.60;0.70;;;25.20;41.70;;;;;;4929124;29;20219;-49
2021/11/21 06:26:50;;;;;;;4.40;0.60;;;25.20;41.60;;;;;;4929807;29;20204;-52
2021/11/21 06:29:21;;;;;;;1.63;0.45;;;25.30;41.70;;;;;;4930340;29;20266;-53
2021/11/21 06:31:52;;;;;;;2.42;0.47;;;25.30;41.60;;;;;;4929835;29;20259;-52
2021/11/21 06:34:23;;;;;;;1.15;0.57;;;25.30;41.60;;;;;;4929205;29;20255;-53
2021/11/21 06:36:53;;;;;;;1.23;0.57;;;25.30;41.50;;;;;;4928739;29;20255;-49
2021/11/21 06:39:26;;;;;;;2.00;0.70;;;25.30;41.40;;;;;;4930473;29;20703;-59
2021/11/21 06:41:57;;;;;;;0.88;0.50;;;25.40;41.20;;;;;;4930047;29;20255;-52
2021/11/21 06:44:27;;;;;;;2.20;0.70;;;25.40;41.10;;;;;;4930413;29;20227;-56
2021/11/21 06:46:58;;;;;;;1.35;0.40;;;25.40;41.00;;;;;;4929456;29;20259;-49
2021/11/21 06:49:29;;;;;;;1.48;0.50;;;25.40;40.80;;;;;;4928571;29;20199;-55
2021/11/21 06:51:59;;;;;;;1.55;0.52;;;25.40;40.60;;;;;;4924322;29;20200;-53
2021/11/21 06:54:32;;;;;;;2.47;0.60;;;25.40;40.40;;;;;;4928788;29;20223;-50
2021/11/21 06:57:02;;;;;;;3.15;0.63;;;25.40;40.40;;;;;;4928539;29;20268;-54
2021/11/21 06:59:33;;;;;;;2.55;0.77;;;25.40;40.20;;;;;;4929248;29;20259;-53
2021/11/21 07:02:04;;;;;;;1.98;0.60;;;25.40;40.00;;;;;;4929893;29;20195;-52
2021/11/21 07:04:34;;;;;;;2.05;0.70;;;25.50;40.00;;;;;;4929009;29;20227;-52
2021/11/21 07:07:10;;;;;;;3.63;0.50;;;25.40;40.00;;;;;;4928929;29;20207;-49
2021/11/21 07:09:44;;;;;;;4.97;0.68;;;25.40;39.80;;;;;;4929845;29;20235;-52
2021/11/21 07:12:15;;;;;;;1.23;0.68;;;25.40;39.70;;;;;;4929444;29;20237;-48
2021/11/21 07:14:45;;;;;;;2.17;0.52;;;25.40;39.60;;;;;;4929483;29;20270;-49
2021/11/21 07:17:16;;;;;;;1.83;0.57;;;25.40;39.60;;;;;;4930294;29;20200;-52
2021/11/21 07:19:46;;;;;;;3.85;0.70;;;25.40;39.50;;;;;;4929370;29;20263;-49
2021/11/21 07:22:17;;;;;;;2.10;0.57;;;25.40;39.50;;;;;;4927847;29;20263;-49
2021/11/21 07:24:49;;;;;;;5.03;0.60;;;25.40;39.40;;;;;;4925735;29;20702;-52
2021/11/21 07:27:20;;;;;;;2.42;0.60;;;25.30;39.30;;;;;;4929397;29;20622;-48
2021/11/21 07:29:51;;;;;;;3.38;0.70;;;25.30;39.20;;;;;;4928039;29;20212;-47
2021/11/21 07:32:21;;;;;;;3.97;0.82;;;25.30;39.20;;;;;;4929373;29;20208;-54
2021/11/21 07:34:52;;;;;;;2.03;0.52;;;25.30;39.10;;;;;;4929666;29;20235;-53
2021/11/21 07:37:22;;;;;;;2.95;0.77;;;25.30;39.10;;;;;;4929346;29;20341;-53
2021/11/21 07:39:55;;;;;;;2.25;0.60;;;25.30;39.00;;;;;;4929932;29;20254;-51
2021/11/21 07:42:25;;;;;;;2.17;0.60;;;25.20;38.90;;;;;;4929255;29;20255;-55
2021/11/21 07:44:56;;;;;;;2.75;0.73;;;25.20;38.90;;;;;;4929119;29;20227;-54
2021/11/21 07:47:27;;;;;;;2.97;0.80;;;25.20;38.80;;;;;;4928494;29;20200;-54
2021/11/21 07:49:57;;;;;;;2.88;0.73;;;25.10;38.80;;;;;;4930033;29;20256;-52
2021/11/21 07:52:28;;;;;;;3.50;0.60;;;25.10;38.80;;;;;;4928920;29;20370;-51
2021/11/21 07:55:01;;;;;;;5.00;0.70;;;25.10;38.80;;;;;;4928977;29;20223;-53
2021/11/21 07:57:31;;;;;;;4.63;0.98;;;25.10;38.70;;;;;;4928239;29;20200;-51
2021/11/21 08:00:02;;;;;;;4.28;1.02;;;25.00;38.60;;;;;;4928269;29;20207;-54
2021/11/21 08:02:33;;;;;;;6.32;1.02;;;25.00;39.30;;;;;;4927713;29;20199;-50
2021/11/21 08:05:03;;;;;;;6.00;1.10;;;25.00;38.80;;;;;;4929760;29;20227;-55
2021/11/21 08:07:34;;;;;;;8.70;0.90;;;24.90;38.70;;;;;;4929821;29;20203;-57
2021/11/21 08:10:08;;;;;;;4.00;1.27;;;24.90;38.90;;;;;;4928637;29;20231;-58
2021/11/21 08:12:39;;;;;;;5.93;0.90;;;24.90;38.90;;;;;;4927850;29;20203;-53
2021/11/21 08:15:11;;;;;;;2.75;0.70;;;24.90;38.90;;;;;;4928722;29;20302;-56
2021/11/21 08:17:41;;;;;;;7.25;0.95;;;24.80;38.90;;;;;;4928424;29;20200;-53
2021/11/21 08:20:12;;;;;;;8.05;1.00;;;24.80;38.90;;;;;;4930851;29;20732;-58
2021/11/21 08:22:43;;;;;;;4.57;0.77;;;24.80;39.00;;;;;;4932057;29;20203;-57
2021/11/21 08:25:16;;;;;;;5.05;0.60;;;24.80;39.00;;;;;;4930109;29;20219;-54
2021/11/21 08:27:47;;;;;;;4.60;1.05;;;24.70;38.90;;;;;;4933174;29;20651;-58
2021/11/21 08:30:18;;;;;;;5.45;0.90;;;24.70;38.90;;;;;;4930123;29;20760;-58
2021/11/21 08:32:49;;;;;;;7.30;1.30;;;24.70;38.90;;;;;;4931027;29;20223;-54
2021/11/21 08:35:20;;;;;;;5.13;0.93;;;24.70;38.90;;;;;;4931235;29;20219;-57
2021/11/21 08:37:50;;;;;;;2.38;0.80;;;24.70;38.90;;;;;;4932328;29;20206;-57
2021/11/21 08:40:23;;;;;;;3.70;1.00;;;24.60;39.00;;;;;;4932197;29;20208;-57
2021/11/21 08:42:53;;;;;;;2.55;0.82;;;24.60;39.00;;;;;;4932829;29;20263;-57
2021/11/21 08:45:24;;;;;;;7.45;0.90;;;24.60;39.00;;;;;;4931143;29;20223;-51
2021/11/21 08:47:55;;;;;;;3.30;0.52;;;24.60;39.10;;;;;;4931964;29;20211;-58
2021/11/21 08:50:26;;;;;;;5.30;0.60;;;24.50;39.10;;;;;;4930227;29;20266;-53
2021/11/21 08:52:57;;;;;;;4.13;0.75;;;24.50;39.20;;;;;;4930773;29;20203;-58
2021/11/21 08:55:30;;;;;;;4.88;0.82;;;24.50;39.30;;;;;;4930106;29;20707;-55
2021/11/21 08:58:01;;;;;;;2.45;0.70;;;24.50;39.30;;;;;;4933720;29;20250;-56
2021/11/21 09:00:31;;;;;;;1.63;0.60;;;24.50;39.30;;;;;;4918105;29;20267;-53
2021/11/21 09:03:02;;;;;;;3.33;0.75;;;24.50;39.40;;;;;;4932103;29;20207;-55
2021/11/21 09:05:33;;;;;;;2.42;0.60;;;24.40;39.40;;;;;;4932580;29;20578;-52
2021/11/21 09:08:04;;;;;;;3.17;0.70;;;24.40;39.50;;;;;;4932443;29;20208;-51
2021/11/21 09:10:36;;;;;;;1.73;0.60;;;24.40;39.50;;;;;;4931212;29;20691;-51
2021/11/21 09:13:07;;;;;;;3.20;0.70;;;24.30;39.50;;;;;;4931504;29;20230;-49
2021/11/21 09:15:37;;;;;;;4.32;0.75;;;24.30;39.40;;;;;;4932586;29;20280;-50
2021/11/21 09:18:08;;;;;;;2.72;0.50;;;24.30;39.40;;;;;;4933224;29;20258;-50
2021/11/21 09:20:39;;;;;;;1.95;0.68;;;24.30;39.40;;;;;;4932078;29;20743;-54
2021/11/21 09:23:12;;;;;;;1.35;0.50;;;24.30;39.50;;;;;;4932177;29;20207;-54
2021/11/21 09:25:44;;;;;;;3.08;0.70;;;24.30;39.60;;;;;;4932442;29;20815;-58
2021/11/21 09:28:15;;;;;;;3.25;0.90;;;24.20;39.60;;;;;;4932532;29;20641;-57
2021/11/21 09:30:46;;;;;;;3.53;0.75;;;24.20;39.60;;;;;;4932198;29;20228;-57
2021/11/21 09:33:16;;;;;;;1.48;0.55;;;24.20;39.60;;;;;;4933849;29;20258;-47
2021/11/21 09:35:47;;;;;;;4.68;1.00;;;24.20;39.70;;;;;;4931680;29;20219;-54
2021/11/21 09:38:19;;;;;;;2.25;0.80;;;24.20;39.80;;;;;;4922841;29;20730;-49
2021/11/21 09:40:52;;;;;;;5.50;1.00;;;24.10;39.80;;;;;;4926660;29;20207;-49
2021/11/21 09:43:23;;;;;;;2.75;0.75;;;24.10;39.90;;;;;;4932627;29;20254;-55
2021/11/21 09:45:54;;;;;;;5.97;0.95;;;24.10;39.90;;;;;;4931573;29;20224;-47
2021/11/21 09:48:30;;;;;;;3.67;0.90;;;24.10;40.00;;;;;;4933382;29;20254;-46
2021/11/21 09:51:01;;;;;;;4.68;1.05;;;24.00;40.00;;;;;;4916015;29;20220;-48
2021/11/21 09:53:32;;;;;;;2.85;0.95;;;24.00;40.00;;;;;;4931809;29;20667;-53
2021/11/21 09:56:04;;;;;;;4.47;1.05;;;24.00;40.00;;;;;;4931657;29;20227;-52
2021/11/21 09:58:35;;;;;;;3.33;1.00;;;24.00;40.00;;;;;;4931162;29;20250;-47
2021/11/21 10:01:06;;;;;;;3.10;0.80;;;24.00;40.10;;;;;;4923449;29;20203;-51
2021/11/21 10:03:47;;;;;;;2.20;0.70;;;24.00;40.10;;;;;;4932387;29;20470;-53
2021/11/21 10:06:34;;;;;;;5.05;1.00;;;24.00;40.10;;;;;;4917918;29;20207;-53
2021/11/21 10:09:05;;;;;;;4.40;1.17;;;24.00;40.20;;;;;;4933089;29;20674;-54
2021/11/21 10:12:01;;;;;;;2.35;1.10;;;24.00;40.20;;;;;;4931999;29;20640;-52
2021/11/21 10:14:34;;;;;;;2.33;0.90;;;23.90;40.20;;;;;;4932221;29;20822;-49
2021/11/21 10:17:19;;;;;;;3.00;0.98;;;23.90;40.20;;;;;;4930151;29;20270;-49
2021/11/21 10:20:07;;;;;;;3.83;1.20;;;23.80;40.20;;;;;;4931479;29;20207;-51
2021/11/21 10:23:02;;;;;;;4.55;1.08;;;23.80;40.30;;;;;;4930961;29;20204;-53
2021/11/21 10:25:45;;;;;;;3.00;0.80;;;23.80;40.30;;;;;;4916578;29;20282;-49
2021/11/21 10:28:21;;;;;;;2.72;1.00;;;23.80;40.30;;;;;;4930972;29;20211;-47
2021/11/21 10:31:01;;;;;;;4.25;1.00;;;23.70;40.30;;;;;;4928579;29;20228;-46
2021/11/21 10:33:33;;;;;;;3.40;0.85;;;23.70;40.40;;;;;;4918527;29;20267;-49
2021/11/21 10:36:06;;;;;;;3.70;0.90;;;23.70;40.40;;;;;;4932527;29;20223;-50
2021/11/21 10:38:39;;;;;;;1.42;0.63;;;23.70;40.40;;;;;;4914906;29;20251;-49
2021/11/21 10:41:12;;;;;;;2.38;0.90;;;23.70;40.40;;;;;;4931092;29;20774;-53
2021/11/21 10:43:56;;;;;;;3.92;1.00;;;23.60;40.40;;;;;;4930456;29;20278;-51
2021/11/21 10:46:33;;;;;;;2.55;0.95;;;23.70;40.50;;;;;;4929925;29;20219;-50
2021/11/21 10:49:34;;;;;;;4.13;0.90;;;23.60;40.50;;;;;;4929888;29;20216;-49
2021/11/21 10:52:10;;;;;;;2.33;0.80;;;23.60;40.50;;;;;;4899252;29;20231;-50
2021/11/21 10:54:47;;;;;;;2.28;0.77;;;23.60;40.50;;;;;;4930541;29;20227;-49
2021/11/21 10:57:19;;;;;;;2.63;0.88;;;23.60;40.50;;;;;;4929068;29;20204;-51
2021/11/21 10:59:55;;;;;;;1.83;0.85;;;23.50;40.50;;;;;;4929233;29;20210;-48
2021/11/21 11:02:27;;;;;;;2.22;0.80;;;23.50;40.60;;;;;;4930776;29;20199;-49
2021/11/21 11:05:06;;;;;;;1.90;0.90;;;23.50;40.60;;;;;;4916271;29;20296;-52
2021/11/21 11:07:39;;;;;;;2.38;0.80;;;23.50;40.70;;;;;;4929541;29;20266;-48
2021/11/21 11:10:13;;;;;;;1.83;0.80;;;23.50;40.70;;;;;;4930506;29;20205;-48
2021/11/21 11:12:45;;;;;;;3.03;0.90;;;23.50;40.70;;;;;;4930275;29;20227;-49
2021/11/21 11:15:18;;;;;;;2.42;0.80;;;23.40;40.70;;;;;;4928681;29;20274;-52
2021/11/21 11:17:49;;;;;;;3.33;1.13;;;23.40;40.70;;;;;;4928431;29;20251;-48
2021/11/21 11:20:21;;;;;;;1.63;0.77;;;23.40;40.80;;;;;;4915911;29;20208;-49
2021/11/21 11:22:53;;;;;;;2.35;0.80;;;23.40;40.80;;;;;;4931095;29;20286;-51
2021/11/21 11:25:26;;;;;;;4.05;1.00;;;23.40;40.80;;;;;;4929721;29;20219;-49
2021/11/21 11:28:02;;;;;;;1.90;0.75;;;23.30;40.80;;;;;;4930202;29;20870;-51
2021/11/21 11:30:36;;;;;;;1.80;0.95;;;23.30;40.80;;;;;;4925096;29;20263;-49
2021/11/21 11:33:14;;;;;;;2.65;0.90;;;23.30;40.80;;;;;;4922881;29;20231;-47
2021/11/21 11:35:47;;;;;;;1.63;0.93;;;23.30;40.90;;;;;;4926436;29;20289;-48
2021/11/21 11:38:20;;;;;;;1.50;0.75;;;23.30;40.90;;;;;;4922711;29;20196;-53
2021/11/21 11:40:55;;;;;;;1.60;0.77;;;23.30;41.00;;;;;;4924833;29;20195;-48
2021/11/21 11:43:41;;;;;;;2.45;0.90;;;23.20;41.00;;;;;;4926115;29;20504;-51
2021/11/21 11:46:28;;;;;;;2.10;0.80;;;23.20;41.00;;;;;;4927921;29;20216;-47
2021/11/21 11:49:01;;;;;;;2.08;0.80;;;23.20;41.00;;;;;;4924643;29;20204;-50
2021/11/21 11:51:55;;;;;;;1.55;0.63;;;23.20;41.00;;;;;;4925496;29;20635;-51
2021/11/21 11:54:34;;;;;;;2.25;0.75;;;23.10;41.00;;;;;;4931146;29;20700;-52
2021/11/21 11:57:08;;;;;;;0.90;0.70;;;23.10;41.00;;;;;;4930329;29;20203;-47
2021/11/21 11:59:42;;;;;;;1.42;0.70;;;23.00;41.00;;;;;;4928472;29;20195;-52
2021/11/21 12:02:30;;;;;;;1.50;0.75;;;23.00;41.10;;;;;;4927487;29;20547;-52
2021/11/21 12:05:03;;;;;;;1.60;0.75;;;23.00;41.10;;;;;;4925573;29;20304;-51
2021/11/21 12:07:42;;;;;;;1.00;0.50;;;23.00;41.10;;;;;;4925367;29;20212;-54
2021/11/21 12:10:19;;;;;;;1.67;0.70;;;23.00;41.20;;;;;;4929474;29;20302;-50
2021/11/21 12:13:10;;;;;;;1.15;0.55;;;23.00;41.20;;;;;;4932034;29;20632;-46
2021/11/21 12:15:56;;;;;;;1.83;0.68;;;22.90;41.10;;;;;;4926796;29;20228;-51
2021/11/21 12:18:56;;;;;;;1.63;0.90;;;22.90;41.20;;;;;;4933073;29;20218;-54
2021/11/21 12:21:39;;;;;;;1.58;0.70;;;22.90;41.20;;;;;;4932998;29;20199;-50
2021/11/21 12:24:20;;;;;;;1.42;0.70;;;22.90;41.30;;;;;;4932756;29;20203;-50
2021/11/21 12:26:51;;;;;;;1.15;0.60;;;22.90;41.40;;;;;;4928213;29;20200;-56
2021/11/21 12:29:43;;;;;;;1.95;0.70;;;22.90;41.50;;;;;;4931320;29;20202;-54
2021/11/21 12:32:28;;;;;;;1.88;0.60;;;22.80;41.60;;;;;;4932757;29;20746;-50
2021/11/21 12:35:02;;;;;;;1.15;0.60;;;22.80;41.70;;;;;;4919504;29;20215;-46
2021/11/21 12:37:50;;;;;;;1.05;0.50;;;22.80;41.70;;;;;;4934408;29;20206;-49
2021/11/21 12:40:27;;;;;;;1.00;0.50;;;22.80;41.80;;;;;;4918407;29;20240;-51
2021/11/21 12:43:00;;;;;;;1.27;0.52;;;22.70;41.80;;;;;;4932903;29;20199;-48
2021/11/21 12:45:32;;;;;;;2.83;0.90;;;22.70;41.90;;;;;;4931861;29;20223;-49
2021/11/21 12:48:03;;;;;;;1.00;0.60;;;22.60;42.00;;;;;;4924677;29;20614;-46
2021/11/21 12:50:38;;;;;;;1.92;0.90;;;22.60;42.00;;;;;;4925725;29;20251;-53
2021/11/21 12:53:10;;;;;;;2.17;1.00;;;22.60;42.00;;;;;;4932215;29;20322;-50
2021/11/21 12:55:42;;;;;;;2.22;0.80;;;22.60;42.00;;;;;;4932948;29;20283;-47
2021/11/21 12:58:18;;;;;;;1.50;0.60;;;22.60;42.10;;;;;;4933992;29;20679;-51
2021/11/21 13:00:49;;;;;;;1.23;0.60;;;22.60;42.10;;;;;;4929369;29;20617;-51
2021/11/21 13:03:21;;;;;;;1.63;0.80;;;22.60;42.70;;;;;;4932678;29;20207;-54
2021/11/21 13:05:59;;;;;;;1.70;0.70;;;22.60;42.20;;;;;;4924360;29;20224;-50
2021/11/21 13:08:31;;;;;;;1.55;0.85;;;22.50;42.20;;;;;;4927029;29;20199;-51
2021/11/21 13:11:04;;;;;;;1.58;0.80;;;22.50;42.20;;;;;;4932399;29;20266;-51
2021/11/21 13:13:36;;;;;;;2.33;0.70;;;22.50;42.30;;;;;;4932084;29;20227;-48
2021/11/21 13:16:15;;;;;;;1.92;0.75;;;22.50;42.30;;;;;;4934016;29;20282;-55